Time;durP1;ratioP1;P1;durP2;ratioP2;P2;SDS_P1;SDS_P2;PMS_P1;PMS_P2;Temp;Humidity;BMP_temperature;BMP_pressure;BME280_temperature;BME280_humidity;BME280_pressure;Samples;Min_cycle;Max_cycle;Signal;HPM_P1;HPM_P2
2023/04/28 00:02:00;;;;;;;8.80;6.57;;;17.50;99.90;;;;;;5052187;28;20486;-71
2023/04/28 00:04:27;;;;;;;7.95;7.03;;;17.50;99.90;;;;;;5050502;28;20032;-71
2023/04/28 00:06:53;;;;;;;7.25;6.40;;;17.50;99.90;;;;;;5053136;28;20036;-71
2023/04/28 00:09:19;;;;;;;7.25;6.22;;;17.50;99.90;;;;;;5051209;28;20083;-72
2023/04/28 00:11:45;;;;;;;7.00;6.30;;;17.40;99.90;;;;;;5052916;28;20044;-71
2023/04/28 00:14:12;;;;;;;10.00;6.15;;;17.40;99.90;;;;;;5050995;28;20119;-71
2023/04/28 00:16:38;;;;;;;6.93;5.88;;;17.40;99.90;;;;;;5051940;28;20040;-71
2023/04/28 00:19:04;;;;;;;8.75;6.95;;;17.40;99.90;;;;;;5051035;28;20028;-71
2023/04/28 00:21:31;;;;;;;6.55;5.72;;;17.40;99.90;;;;;;5052980;28;20032;-72
2023/04/28 00:23:57;;;;;;;7.05;6.38;;;17.40;99.90;;;;;;5052504;28;20028;-72
2023/04/28 00:26:23;;;;;;;8.52;6.35;;;17.40;99.90;;;;;;5052419;28;20072;-72
2023/04/28 00:28:49;;;;;;;8.75;6.35;;;17.40;99.90;;;;;;5053537;28;20539;-72
2023/04/28 00:31:15;;;;;;;6.82;5.97;;;17.40;99.90;;;;;;5050080;28;20037;-72
2023/04/28 00:33:42;;;;;;;8.00;6.53;;;17.40;99.90;;;;;;5052921;28;20040;-72
2023/04/28 00:36:08;;;;;;;6.47;5.88;;;17.40;99.90;;;;;;5059986;28;20044;-72
2023/04/28 00:38:35;;;;;;;8.10;6.20;;;17.40;99.90;;;;;;5053962;28;20021;-71
2023/04/28 00:41:01;;;;;;;6.13;5.63;;;17.40;99.90;;;;;;5048698;28;20029;-71
2023/04/28 00:43:27;;;;;;;7.32;6.18;;;17.50;99.90;;;;;;5064469;28;20028;-72
2023/04/28 00:45:53;;;;;;;7.38;6.45;;;17.40;99.90;;;;;;5045326;28;20029;-71
2023/04/28 00:48:19;;;;;;;6.25;5.75;;;17.40;99.90;;;;;;5029101;28;20491;-72
2023/04/28 00:50:46;;;;;;;6.70;5.82;;;17.40;99.90;;;;;;5030599;28;20044;-72
2023/04/28 00:53:12;;;;;;;6.60;5.55;;;17.40;99.90;;;;;;5028455;28;20030;-71
2023/04/28 00:55:38;;;;;;;6.82;5.88;;;17.40;99.90;;;;;;5030944;28;20030;-72
2023/04/28 00:58:05;;;;;;;6.47;5.90;;;17.30;99.90;;;;;;5031723;28;20030;-72
2023/04/28 01:00:31;;;;;;;6.90;5.68;;;17.30;99.90;;;;;;5033939;28;20029;-72
2023/04/28 01:02:57;;;;;;;6.18;5.53;;;17.30;99.90;;;;;;5049710;28;20477;-72
2023/04/28 01:05:27;;;;;;;6.53;5.93;;;17.30;99.90;;;;;;5052776;28;20068;-72
2023/04/28 01:07:53;;;;;;;7.55;6.25;;;17.30;99.90;;;;;;5051039;28;20029;-71
2023/04/28 01:10:19;;;;;;;6.35;5.85;;;17.30;99.90;;;;;;5050286;28;20044;-72
2023/04/28 01:12:45;;;;;;;6.32;5.82;;;17.30;99.90;;;;;;5049500;28;20533;-72
2023/04/28 01:15:15;;;;;;;6.53;5.93;;;17.30;99.90;;;;;;5050781;28;20032;-71
2023/04/28 01:17:42;;;;;;;6.43;5.93;;;17.20;99.90;;;;;;5034337;28;20363;-71
2023/04/28 01:20:08;;;;;;;6.75;5.25;;;17.10;99.90;;;;;;5050363;28;20422;-71
2023/04/28 01:22:35;;;;;;;6.80;5.90;;;17.10;99.90;;;;;;5054115;28;20496;-72
2023/04/28 01:25:02;;;;;;;6.50;5.90;;;17.20;99.90;;;;;;5051804;28;20039;-71
2023/04/28 01:27:28;;;;;;;6.10;5.60;;;17.20;99.90;;;;;;5048978;28;20414;-72
2023/04/28 01:29:56;;;;;;;5.82;5.43;;;17.20;99.90;;;;;;5049265;28;20489;-71
2023/04/28 01:32:22;;;;;;;5.75;5.25;;;17.20;99.90;;;;;;5052164;28;20044;-71
2023/04/28 01:34:48;;;;;;;5.97;5.38;;;17.20;99.90;;;;;;5051071;28;20033;-71
2023/04/28 01:37:14;;;;;;;7.50;6.03;;;17.20;99.90;;;;;;5062005;28;20043;-71
2023/04/28 01:39:40;;;;;;;7.40;5.25;;;17.20;99.90;;;;;;5051871;28;20025;-72
2023/04/28 01:42:06;;;;;;;7.60;6.10;;;17.10;99.90;;;;;;5043990;28;20394;-72
2023/04/28 01:44:32;;;;;;;6.90;6.20;;;17.00;99.90;;;;;;5054559;28;20032;-71
2023/04/28 01:46:58;;;;;;;5.90;5.40;;;17.00;99.90;;;;;;5051134;28;20401;-72
2023/04/28 01:49:24;;;;;;;5.47;4.97;;;17.00;99.90;;;;;;5055659;28;20045;-71
2023/04/28 01:51:51;;;;;;;6.25;5.43;;;17.00;99.90;;;;;;5051676;28;20100;-71
2023/04/28 01:54:17;;;;;;;6.18;5.55;;;17.00;99.90;;;;;;5052570;28;20025;-71
2023/04/28 01:56:43;;;;;;;6.90;6.30;;;17.10;99.90;;;;;;5044944;28;20510;-71
2023/04/28 01:59:09;;;;;;;7.10;5.53;;;17.10;99.90;;;;;;5061967;28;20021;-71
2023/04/28 02:01:35;;;;;;;6.93;5.93;;;17.00;99.90;;;;;;5048970;28;20033;-71
2023/04/28 02:04:01;;;;;;;7.07;5.95;;;17.00;99.90;;;;;;5048166;28;20036;-71
2023/04/28 02:06:27;;;;;;;7.82;5.57;;;17.00;99.90;;;;;;5045032;28;20040;-71
2023/04/28 02:08:53;;;;;;;6.43;5.82;;;17.00;99.90;;;;;;5048181;28;20044;-72
2023/04/28 02:11:19;;;;;;;8.43;5.88;;;17.10;99.90;;;;;;5049111;28;20409;-72
2023/04/28 02:13:45;;;;;;;7.95;5.90;;;17.00;99.90;;;;;;5050326;28;20386;-72
2023/04/28 02:16:12;;;;;;;7.15;5.95;;;17.00;99.90;;;;;;5032423;28;20039;-71
2023/04/28 02:18:38;;;;;;;6.82;6.20;;;17.10;99.90;;;;;;5051559;28;20442;-72
2023/04/28 02:21:10;;;;;;;7.53;5.80;;;17.10;99.90;;;;;;5080735;28;20020;-71
2023/04/28 02:23:37;;;;;;;10.80;6.40;;;17.10;99.90;;;;;;5047835;28;20021;-72
2023/04/28 02:26:03;;;;;;;6.70;6.10;;;17.10;99.90;;;;;;5050339;28;20409;-71
2023/04/28 02:28:29;;;;;;;7.25;6.55;;;17.10;99.90;;;;;;5022012;28;20029;-72
2023/04/28 02:31:09;;;;;;;7.25;6.47;;;17.10;99.90;;;;;;5061038;28;20052;-72
2023/04/28 02:33:35;;;;;;;8.98;5.78;;;17.10;99.90;;;;;;5078582;28;20040;-71
2023/04/28 02:36:01;;;;;;;7.50;6.75;;;17.10;99.90;;;;;;5031792;28;20032;-72
2023/04/28 02:38:28;;;;;;;7.13;6.50;;;17.00;99.90;;;;;;5027136;28;20025;-71
2023/04/28 02:40:58;;;;;;;7.65;6.95;;;17.00;99.90;;;;;;5063906;28;20029;-71
2023/04/28 02:43:24;;;;;;;7.93;7.13;;;17.00;99.90;;;;;;5049035;28;20029;-71
2023/04/28 02:45:51;;;;;;;7.05;6.38;;;17.00;99.90;;;;;;5054364;28;20037;-71
2023/04/28 02:48:17;;;;;;;7.20;6.50;;;16.90;99.90;;;;;;5068994;28;20508;-71
2023/04/28 02:50:45;;;;;;;7.90;6.57;;;16.90;99.90;;;;;;5049793;28;20398;-71
2023/04/28 02:53:11;;;;;;;8.25;6.45;;;16.90;99.90;;;;;;5053750;28;20025;-71
2023/04/28 02:55:37;;;;;;;7.03;6.43;;;16.80;99.90;;;;;;5050178;28;20029;-71
2023/04/28 02:58:04;;;;;;;8.13;6.88;;;16.90;99.90;;;;;;5048822;28;20029;-71
2023/04/28 03:00:30;;;;;;;9.43;6.78;;;16.90;99.90;;;;;;5056229;28;20025;-71
2023/04/28 03:02:56;;;;;;;7.38;6.70;;;16.90;99.90;;;;;;5029620;28;20497;-71
2023/04/28 03:05:22;;;;;;;7.43;6.63;;;16.90;99.90;;;;;;5029353;28;20041;-71
2023/04/28 03:07:48;;;;;;;8.93;6.60;;;16.90;99.90;;;;;;5023201;28;20037;-71
2023/04/28 03:10:14;;;;;;;7.88;7.25;;;16.90;99.90;;;;;;5045331;28;20034;-71
2023/04/28 03:12:40;;;;;;;8.77;7.10;;;16.90;99.90;;;;;;5031266;28;20040;-71
2023/04/28 03:15:07;;;;;;;8.10;7.13;;;16.90;99.90;;;;;;5030590;28;20030;-71
2023/04/28 03:17:35;;;;;;;8.27;7.07;;;16.90;99.90;;;;;;5028721;28;20029;-71
2023/04/28 03:20:02;;;;;;;7.50;6.70;;;16.90;99.90;;;;;;5044170;28;20040;-71
2023/04/28 03:22:28;;;;;;;6.97;6.10;;;16.80;99.90;;;;;;5020985;28;20033;-71
2023/04/28 03:24:54;;;;;;;7.18;6.47;;;16.80;99.90;;;;;;5029960;28;20499;-71
2023/04/28 03:27:20;;;;;;;7.50;6.55;;;16.70;99.90;;;;;;5029796;28;20037;-71
2023/04/28 03:29:46;;;;;;;8.32;6.43;;;16.70;99.90;;;;;;5022439;28;20033;-72
2023/04/28 03:32:12;;;;;;;7.03;6.32;;;16.70;99.90;;;;;;5028259;28;20045;-71
2023/04/28 03:34:38;;;;;;;7.15;6.45;;;16.70;99.90;;;;;;5028645;28;20042;-71
2023/04/28 03:37:05;;;;;;;7.45;6.72;;;16.70;99.90;;;;;;5030841;28;20028;-71
2023/04/28 03:39:31;;;;;;;8.60;6.22;;;16.70;99.90;;;;;;5027827;28;20068;-71
2023/04/28 03:41:57;;;;;;;6.72;6.03;;;16.70;99.90;;;;;;5029833;28;20026;-71
2023/04/28 03:44:23;;;;;;;7.03;6.32;;;16.70;99.90;;;;;;5030609;28;20359;-71
2023/04/28 03:46:49;;;;;;;7.43;6.65;;;16.80;99.90;;;;;;5045457;28;20508;-71
2023/04/28 03:49:15;;;;;;;7.38;6.70;;;16.80;99.90;;;;;;5029497;28;20466;-71
2023/04/28 03:51:41;;;;;;;9.73;6.88;;;16.70;99.90;;;;;;5027556;28;20612;-71
2023/04/28 03:54:07;;;;;;;6.85;6.15;;;16.80;99.90;;;;;;5027563;28;20040;-71
2023/04/28 03:56:34;;;;;;;7.25;6.60;;;16.70;99.90;;;;;;5044863;28;20036;-71
2023/04/28 03:59:00;;;;;;;7.65;7.05;;;16.70;99.90;;;;;;5023678;28;20029;-71
2023/04/28 04:01:26;;;;;;;7.32;6.63;;;16.70;99.90;;;;;;5030498;28;20483;-71
2023/04/28 04:03:52;;;;;;;8.15;7.35;;;16.80;99.90;;;;;;5032795;28;20026;-71
2023/04/28 04:06:18;;;;;;;7.38;6.68;;;16.80;99.90;;;;;;5033731;28;20029;-71
2023/04/28 04:08:44;;;;;;;10.50;7.10;;;16.80;99.90;;;;;;5030023;28;20033;-71
2023/04/28 04:11:10;;;;;;;8.73;7.50;;;16.80;99.90;;;;;;5014897;28;20057;-71
2023/04/28 04:13:36;;;;;;;9.02;7.68;;;16.80;99.90;;;;;;5015251;28;20430;-71
2023/04/28 04:16:03;;;;;;;9.38;7.90;;;16.70;99.90;;;;;;5031313;28;20063;-71
2023/04/28 04:18:29;;;;;;;9.52;7.68;;;16.70;99.90;;;;;;5019488;28;20056;-70
2023/04/28 04:20:56;;;;;;;8.85;7.55;;;16.80;99.90;;;;;;5027695;28;20109;-71
2023/04/28 04:23:22;;;;;;;7.90;7.10;;;16.80;99.90;;;;;;5033286;28;20036;-71
2023/04/28 04:25:48;;;;;;;7.75;6.75;;;16.80;99.90;;;;;;5033081;28;20033;-71
2023/04/28 04:28:15;;;;;;;7.43;6.72;;;16.80;99.90;;;;;;5031868;28;20520;-71
2023/04/28 04:30:41;;;;;;;9.15;7.93;;;16.80;99.90;;;;;;5031257;28;20048;-71
2023/04/28 04:33:07;;;;;;;8.73;7.47;;;16.80;99.90;;;;;;5036421;28;20032;-71
2023/04/28 04:35:33;;;;;;;10.52;8.00;;;16.80;99.90;;;;;;5033904;28;20049;-71
2023/04/28 04:38:00;;;;;;;26.17;7.85;;;16.80;99.90;;;;;;5032641;28;20029;-71
2023/04/28 04:40:26;;;;;;;514.88;35.80;;;16.80;99.90;;;;;;5042878;28;20479;-71
2023/04/28 04:42:52;;;;;;;96.20;15.18;;;16.80;99.90;;;;;;5030413;28;20048;-71
2023/04/28 04:45:18;;;;;;;11.52;8.65;;;16.70;99.90;;;;;;5025713;28;20467;-71
2023/04/28 04:47:44;;;;;;;10.38;8.02;;;16.70;99.90;;;;;;5032182;28;20041;-71
2023/04/28 04:50:10;;;;;;;9.50;7.85;;;16.70;99.90;;;;;;5020498;28;20264;-70
2023/04/28 04:52:37;;;;;;;8.48;7.68;;;16.70;99.90;;;;;;5024482;28;21483;-71
2023/04/28 04:55:03;;;;;;;12.07;8.50;;;16.80;99.90;;;;;;5063471;28;20029;-71
2023/04/28 04:57:29;;;;;;;8.57;7.30;;;16.70;99.90;;;;;;5032534;28;20052;-71
2023/04/28 04:59:55;;;;;;;11.70;8.90;;;16.70;99.90;;;;;;5033474;28;20029;-71
2023/04/28 05:02:22;;;;;;;8.80;8.00;;;16.70;99.90;;;;;;5034325;28;20044;-71
2023/04/28 05:04:48;;;;;;;9.05;8.13;;;16.70;99.90;;;;;;5030544;28;20037;-71
2023/04/28 05:07:14;;;;;;;9.07;8.18;;;16.70;99.90;;;;;;5042792;28;20064;-71
2023/04/28 05:09:40;;;;;;;9.05;8.20;;;16.80;99.90;;;;;;5039340;28;20030;-71
2023/04/28 05:12:06;;;;;;;9.18;8.27;;;16.70;99.90;;;;;;5032813;28;20497;-71
2023/04/28 05:14:32;;;;;;;9.77;8.80;;;16.80;99.90;;;;;;5030238;28;20029;-71
2023/04/28 05:16:58;;;;;;;8.85;7.60;;;16.70;99.90;;;;;;5031938;28;20045;-71
2023/04/28 05:19:24;;;;;;;9.63;8.65;;;16.70;99.90;;;;;;5030035;28;20021;-71
2023/04/28 05:21:53;;;;;;;8.80;7.95;;;16.70;99.90;;;;;;5037398;28;20370;-71
2023/04/28 05:24:22;;;;;;;9.63;8.68;;;16.80;99.90;;;;;;5031085;28;20509;-71
2023/04/28 05:26:52;;;;;;;9.15;8.25;;;16.80;99.90;;;;;;5028074;28;20049;-71
2023/04/28 05:29:20;;;;;;;10.57;8.40;;;16.80;99.90;;;;;;5033556;28;20026;-71
2023/04/28 05:31:46;;;;;;;9.63;8.73;;;16.80;99.90;;;;;;5030506;28;20040;-71
2023/04/28 05:34:12;;;;;;;11.00;8.85;;;16.80;99.90;;;;;;5043579;28;20489;-71
2023/04/28 05:36:38;;;;;;;9.65;8.60;;;16.80;99.90;;;;;;5035189;28;20040;-71
2023/04/28 05:39:04;;;;;;;9.68;8.20;;;16.80;99.90;;;;;;5030295;28;20909;-71
2023/04/28 05:41:30;;;;;;;9.90;8.40;;;16.70;99.90;;;;;;5041610;28;20044;-71
2023/04/28 05:43:57;;;;;;;9.50;8.60;;;16.70;99.90;;;;;;5031542;28;20610;-71
2023/04/28 05:46:23;;;;;;;9.35;8.45;;;16.70;99.90;;;;;;5031160;28;20532;-71
2023/04/28 05:48:49;;;;;;;9.70;8.80;;;16.70;99.90;;;;;;5031015;28;20053;-71
2023/04/28 05:51:15;;;;;;;8.60;7.70;;;16.70;99.90;;;;;;5027143;28;20052;-71
2023/04/28 05:53:41;;;;;;;9.30;8.50;;;16.80;99.90;;;;;;5025484;28;20029;-71
2023/04/28 05:56:07;;;;;;;9.68;8.27;;;16.80;99.90;;;;;;5030996;28;20493;-71
2023/04/28 05:58:33;;;;;;;10.57;8.40;;;16.80;99.90;;;;;;5028917;28;20375;-71
2023/04/28 06:00:59;;;;;;;9.35;8.30;;;16.80;99.90;;;;;;5030002;28;20041;-71
2023/04/28 06:03:26;;;;;;;10.13;9.20;;;17.00;99.90;;;;;;5029867;28;20017;-71
2023/04/28 06:05:52;;;;;;;9.30;8.40;;;17.00;99.90;;;;;;5029777;28;20040;-71
2023/04/28 06:08:18;;;;;;;9.13;8.20;;;17.20;99.90;;;;;;5027950;28;20038;-71
2023/04/28 06:10:44;;;;;;;9.02;8.30;;;17.30;99.90;;;;;;5030928;28;20037;-71
2023/04/28 06:13:10;;;;;;;10.07;9.23;;;17.30;99.90;;;;;;5029864;28;20128;-71
2023/04/28 06:15:36;;;;;;;10.65;9.23;;;17.40;99.90;;;;;;5016721;28;20421;-71
2023/04/28 06:18:04;;;;;;;10.82;8.75;;;17.40;99.90;;;;;;5066884;28;20037;-71
2023/04/28 06:20:31;;;;;;;11.23;10.32;;;17.50;99.90;;;;;;5064694;28;20513;-71
2023/04/28 06:22:57;;;;;;;11.32;8.75;;;17.50;99.90;;;;;;5066138;28;20033;-71
2023/04/28 06:25:23;;;;;;;10.07;8.93;;;17.50;99.90;;;;;;5067845;28;20485;-71
2023/04/28 06:27:49;;;;;;;10.52;9.45;;;17.50;99.90;;;;;;5067355;28;20040;-71
2023/04/28 06:30:19;;;;;;;9.90;9.00;;;17.60;99.90;;;;;;5064137;28;20036;-71
2023/04/28 06:32:45;;;;;;;10.23;9.27;;;17.70;99.90;;;;;;5064137;28;20041;-72
2023/04/28 06:35:11;;;;;;;10.63;9.57;;;17.70;99.90;;;;;;5058040;28;20028;-72
2023/04/28 06:37:37;;;;;;;10.05;9.15;;;17.70;99.90;;;;;;5057471;28;20025;-72
2023/04/28 06:40:04;;;;;;;10.95;10.02;;;17.80;99.90;;;;;;5065933;28;20060;-72
2023/04/28 06:42:30;;;;;;;10.85;9.95;;;17.70;99.90;;;;;;5051937;28;20055;-72
2023/04/28 06:44:56;;;;;;;9.93;9.02;;;17.80;99.90;;;;;;5047790;28;20036;-72
2023/04/28 06:47:22;;;;;;;10.60;9.75;;;17.80;99.90;;;;;;5041851;28;20051;-72
2023/04/28 06:49:49;;;;;;;10.00;9.02;;;17.80;99.90;;;;;;5036346;28;20045;-72
2023/04/28 06:52:15;;;;;;;9.38;8.48;;;17.80;99.90;;;;;;5050429;28;20037;-72
2023/04/28 06:54:41;;;;;;;10.13;9.32;;;17.80;99.90;;;;;;5061878;28;20033;-72
2023/04/28 06:57:07;;;;;;;9.10;8.50;;;18.00;99.90;;;;;;5050336;28;20401;-72
2023/04/28 06:59:33;;;;;;;8.35;7.65;;;18.10;99.90;;;;;;5051119;28;20021;-72
2023/04/28 07:02:00;;;;;;;7.43;6.80;;;18.20;99.90;;;;;;5043280;28;20045;-72
2023/04/28 07:04:26;;;;;;;7.70;7.00;;;18.40;99.90;;;;;;5046573;28;20403;-73
2023/04/28 07:06:52;;;;;;;8.13;7.53;;;18.50;99.90;;;;;;5057160;28;20040;-73
2023/04/28 07:09:18;;;;;;;8.77;7.97;;;18.50;99.90;;;;;;5037029;28;20036;-65
2023/04/28 07:11:45;;;;;;;9.10;8.40;;;18.50;99.90;;;;;;5055791;28;20405;-73
2023/04/28 07:14:11;;;;;;;9.38;8.57;;;18.60;99.90;;;;;;5060590;28;20031;-74
2023/04/28 07:16:37;;;;;;;9.02;8.32;;;18.40;99.90;;;;;;5032819;28;20041;-73
2023/04/28 07:19:03;;;;;;;9.60;8.80;;;18.40;99.90;;;;;;5028492;28;20059;-72
2023/04/28 07:21:29;;;;;;;9.15;8.27;;;18.30;99.90;;;;;;5027716;28;20048;-73
2023/04/28 07:23:55;;;;;;;9.35;8.65;;;18.20;99.90;;;;;;5015762;28;20045;-73
2023/04/28 07:26:22;;;;;;;9.20;8.45;;;18.20;99.90;;;;;;5031304;28;20037;-71
2023/04/28 07:28:48;;;;;;;9.00;8.05;;;18.20;99.90;;;;;;5009686;28;20041;-71
2023/04/28 07:31:14;;;;;;;8.60;7.90;;;18.30;99.90;;;;;;5029091;28;20041;-72
2023/04/28 07:33:40;;;;;;;9.10;8.20;;;18.30;99.90;;;;;;5031893;28;20051;-71
2023/04/28 07:36:06;;;;;;;8.60;7.97;;;18.20;99.90;;;;;;5025890;28;20033;-72
2023/04/28 07:38:34;;;;;;;8.63;7.60;;;18.10;99.90;;;;;;5031470;28;20041;-71
2023/04/28 07:41:01;;;;;;;9.02;8.13;;;18.10;99.90;;;;;;5032381;28;20017;-71
2023/04/28 07:43:27;;;;;;;8.38;7.78;;;18.00;99.90;;;;;;5031909;28;20029;-71
2023/04/28 07:45:53;;;;;;;8.27;7.68;;;18.10;99.90;;;;;;5052007;28;20084;-75
2023/04/28 07:48:19;;;;;;;7.60;7.00;;;18.10;99.90;;;;;;5050317;28;20052;-71
2023/04/28 07:50:46;;;;;;;6.93;6.32;;;18.20;99.90;;;;;;5050814;28;20029;-71
2023/04/28 07:53:12;;;;;;;7.30;6.70;;;18.20;99.90;;;;;;5068542;28;20752;-72
2023/04/28 07:55:40;;;;;;;6.50;5.88;;;18.20;99.90;;;;;;5051616;28;20036;-71
2023/04/28 07:58:07;;;;;;;6.15;5.68;;;18.30;99.90;;;;;;5052024;28;20033;-71
2023/04/28 08:00:33;;;;;;;6.70;6.10;;;18.20;99.90;;;;;;5052402;28;20039;-72
2023/04/28 08:02:59;;;;;;;6.57;6.18;;;18.20;99.90;;;;;;5043978;28;20374;-72
2023/04/28 08:05:25;;;;;;;7.30;6.88;;;18.10;99.90;;;;;;5047726;28;20040;-71
2023/04/28 08:07:52;;;;;;;6.50;6.10;;;18.20;99.90;;;;;;5049883;28;22016;-72
2023/04/28 08:10:18;;;;;;;5.82;5.32;;;18.30;99.90;;;;;;5049561;28;20040;-71
2023/04/28 08:12:44;;;;;;;5.80;5.40;;;18.20;99.90;;;;;;5049853;28;20067;-71
2023/04/28 08:15:10;;;;;;;6.00;5.60;;;18.20;99.90;;;;;;5045401;28;20021;-72
2023/04/28 08:17:36;;;;;;;5.57;5.07;;;18.20;99.90;;;;;;5040339;28;20024;-71
2023/04/28 08:20:04;;;;;;;5.85;5.43;;;18.20;99.90;;;;;;5067458;28;20032;-69
2023/04/28 08:22:30;;;;;;;5.53;5.22;;;18.10;99.90;;;;;;5040675;28;20024;-70
2023/04/28 08:24:56;;;;;;;5.00;4.70;;;18.20;99.90;;;;;;5035005;28;20379;-71
2023/04/28 08:27:24;;;;;;;5.55;5.05;;;18.20;99.90;;;;;;5027744;28;20029;-71
2023/04/28 08:29:50;;;;;;;5.18;4.85;;;18.20;99.90;;;;;;5058470;28;20013;-71
2023/04/28 08:32:17;;;;;;;5.38;4.97;;;18.30;99.90;;;;;;5077260;28;20076;-71
2023/04/28 08:34:43;;;;;;;7.10;6.47;;;18.30;99.90;;;;;;5076312;28;20056;-71
2023/04/28 08:37:09;;;;;;;6.22;5.82;;;18.30;99.90;;;;;;5045471;28;20394;-71
2023/04/28 08:39:36;;;;;;;5.78;5.47;;;18.40;99.90;;;;;;5067317;28;20041;-71
2023/04/28 08:42:05;;;;;;;7.78;6.85;;;18.50;99.90;;;;;;5049712;28;20025;-71
2023/04/28 08:44:38;;;;;;;5.03;4.72;;;18.60;99.90;;;;;;5049002;28;20040;-72
2023/04/28 08:47:13;;;;;;;5.53;5.13;;;18.70;99.90;;;;;;5051003;28;20538;-71
2023/04/28 08:49:40;;;;;;;5.63;5.20;;;18.70;99.90;;;;;;5051820;28;20037;-70
2023/04/28 08:52:11;;;;;;;5.10;4.80;;;18.90;99.90;;;;;;5032268;28;20075;-70
2023/04/28 08:54:37;;;;;;;4.10;3.80;;;19.10;99.90;;;;;;5055613;28;20040;-71
2023/04/28 08:57:04;;;;;;;4.70;4.38;;;19.20;99.90;;;;;;5045584;28;20037;-70
2023/04/28 08:59:30;;;;;;;4.97;4.57;;;19.30;99.90;;;;;;5074627;28;20390;-71
2023/04/28 09:01:57;;;;;;;4.32;4.03;;;19.30;99.90;;;;;;5069438;28;20036;-71
2023/04/28 09:04:23;;;;;;;4.63;4.32;;;19.30;99.90;;;;;;5056000;28;20037;-71
2023/04/28 09:06:49;;;;;;;4.68;4.28;;;19.40;99.90;;;;;;5054473;28;20393;-70
2023/04/28 09:09:18;;;;;;;5.00;4.60;;;19.50;99.90;;;;;;5052966;28;20028;-71
2023/04/28 09:11:58;;;;;;;5.85;5.45;;;19.50;99.90;;;;;;5048983;28;20025;-70
2023/04/28 09:14:25;;;;;;;5.05;4.75;;;19.70;99.90;;;;;;5059223;28;20381;-71
2023/04/28 09:16:51;;;;;;;4.15;3.88;;;19.70;99.90;;;;;;5054262;28;20052;-71
2023/04/28 09:19:17;;;;;;;8.77;8.00;;;19.90;99.90;;;;;;5040358;28;20029;-71
2023/04/28 09:21:56;;;;;;;5.03;4.70;;;20.00;99.90;;;;;;5067325;28;20055;-70
2023/04/28 09:24:25;;;;;;;5.90;5.40;;;20.00;99.90;;;;;;5043540;28;20033;-71
2023/04/28 09:26:51;;;;;;;5.32;4.93;;;20.20;99.90;;;;;;5051380;28;20040;-71
2023/04/28 09:29:17;;;;;;;6.18;5.80;;;20.30;99.90;;;;;;5049999;28;20036;-71
2023/04/28 09:31:43;;;;;;;6.35;5.95;;;20.50;99.90;;;;;;5036217;28;20037;-71
2023/04/28 09:34:11;;;;;;;5.75;5.45;;;20.70;99.90;;;;;;5030764;28;20033;-71
2023/04/28 09:36:37;;;;;;;6.28;5.78;;;20.80;99.90;;;;;;5031112;28;20022;-71
2023/04/28 09:39:03;;;;;;;7.22;6.75;;;21.00;99.90;;;;;;5031200;28;20068;-71
2023/04/28 09:41:39;;;;;;;7.50;7.03;;;21.30;99.90;;;;;;5028553;28;20037;-71
2023/04/28 09:44:16;;;;;;;8.27;7.78;;;21.50;99.90;;;;;;5024027;28;20033;-71
2023/04/28 09:46:43;;;;;;;9.00;8.50;;;21.80;99.90;;;;;;5045648;28;20034;-71
2023/04/28 09:49:10;;;;;;;11.05;10.35;;;21.90;99.90;;;;;;5035306;28;20061;-71
2023/04/28 09:51:36;;;;;;;10.68;9.98;;;21.90;99.90;;;;;;5031690;28;20029;-71
2023/04/28 09:54:02;;;;;;;10.68;9.98;;;22.00;99.90;;;;;;5031733;28;20045;-71
2023/04/28 09:56:29;;;;;;;10.77;10.18;;;22.20;99.90;;;;;;5031923;28;20470;-71
2023/04/28 09:58:57;;;;;;;9.85;9.35;;;22.20;99.90;;;;;;5016712;28;20487;-71
2023/04/28 10:01:26;;;;;;;8.98;8.48;;;22.20;99.90;;;;;;5051903;28;20512;-71
2023/04/28 10:03:55;;;;;;;8.43;8.02;;;22.40;99.90;;;;;;5049909;28;20063;-71
2023/04/28 10:06:21;;;;;;;8.88;8.23;;;22.40;99.90;;;;;;5073798;28;20478;-72
2023/04/28 10:08:48;;;;;;;9.57;8.98;;;22.40;99.90;;;;;;5061896;28;20501;-71
2023/04/28 10:11:15;;;;;;;8.38;7.72;;;22.40;99.90;;;;;;5065316;28;20047;-70
2023/04/28 10:13:42;;;;;;;8.02;7.53;;;22.40;99.90;;;;;;5060388;28;20041;-71
2023/04/28 10:16:09;;;;;;;7.32;6.82;;;22.50;99.90;;;;;;5064826;28;20040;-71
2023/04/28 10:18:36;;;;;;;7.20;6.70;;;22.40;99.90;;;;;;5050307;28;20033;-71
2023/04/28 10:21:03;;;;;;;10.00;9.50;;;22.50;99.90;;;;;;5049548;28;20025;-71
2023/04/28 10:23:50;;;;;;;10.57;9.95;;;22.60;99.90;;;;;;5050787;28;20029;-71
2023/04/28 10:26:20;;;;;;;9.15;8.55;;;22.60;99.90;;;;;;5055023;28;20378;-71
2023/04/28 10:28:47;;;;;;;9.10;8.60;;;22.60;99.90;;;;;;5056544;28;20036;-71
2023/04/28 10:31:14;;;;;;;6.95;6.55;;;22.60;99.90;;;;;;5066030;28;20047;-71
2023/04/28 10:33:40;;;;;;;8.43;8.02;;;22.50;99.90;;;;;;5074299;28;20037;-71
2023/04/28 10:36:06;;;;;;;8.80;8.20;;;22.40;99.90;;;;;;5056034;28;20025;-71
2023/04/28 10:38:33;;;;;;;10.18;9.65;;;22.40;99.90;;;;;;5068324;28;20045;-70
2023/04/28 10:41:03;;;;;;;7.95;7.55;;;22.40;99.90;;;;;;5059815;28;20021;-71
2023/04/28 10:43:29;;;;;;;9.32;8.82;;;22.40;99.90;;;;;;5063326;28;20037;-71
2023/04/28 10:46:02;;;;;;;6.82;6.32;;;22.20;99.90;;;;;;5042907;28;20466;-70
2023/04/28 10:48:28;;;;;;;8.25;7.55;;;22.10;99.90;;;;;;5030452;28;20054;-71
2023/04/28 10:51:14;;;;;;;8.00;7.50;;;22.10;99.90;;;;;;5030152;28;20497;-71
2023/04/28 10:53:43;;;;;;;8.85;8.35;;;22.10;99.90;;;;;;5028800;28;20048;-70
2023/04/28 10:56:20;;;;;;;8.85;8.30;;;22.10;99.90;;;;;;5030374;28;20531;-76
2023/04/28 10:59:26;;;;;;;9.98;9.27;;;22.10;99.90;;;;;;5031845;28;20496;-69
2023/04/28 11:01:52;;;;;;;7.07;6.68;;;22.10;99.90;;;;;;5027780;28;20040;-69
2023/04/28 11:04:18;;;;;;;14.48;8.82;;;22.10;99.90;;;;;;5029788;28;20493;-72
2023/04/28 11:06:45;;;;;;;11.05;9.98;;;22.10;99.90;;;;;;5030752;28;20041;-71
2023/04/28 11:09:11;;;;;;;6.80;6.40;;;22.20;99.90;;;;;;5017485;28;20033;-72
2023/04/28 11:11:38;;;;;;;6.50;6.10;;;22.30;99.90;;;;;;5036070;28;20352;-72
2023/04/28 11:14:19;;;;;;;6.28;5.90;;;22.40;99.90;;;;;;5036043;28;20037;-72
2023/04/28 11:16:51;;;;;;;6.88;6.38;;;22.50;99.90;;;;;;5035600;28;20034;-72
2023/04/28 11:19:24;;;;;;;6.45;6.05;;;22.60;99.90;;;;;;5034949;28;20029;-72
2023/04/28 11:21:51;;;;;;;6.88;6.57;;;22.80;99.90;;;;;;5035636;28;20025;-71
2023/04/28 11:24:18;;;;;;;8.70;8.20;;;22.90;99.90;;;;;;5034900;28;20029;-72
2023/04/28 11:26:44;;;;;;;7.85;7.35;;;23.00;99.90;;;;;;5035878;28;20034;-72
2023/04/28 11:29:11;;;;;;;7.80;7.40;;;22.90;99.90;;;;;;5051346;28;20335;-72
2023/04/28 11:31:37;;;;;;;7.68;7.28;;;22.80;99.90;;;;;;5060234;28;20047;-72
2023/04/28 11:34:04;;;;;;;7.82;7.32;;;22.90;99.90;;;;;;5074409;28;20044;-72
2023/04/28 11:36:34;;;;;;;8.45;7.72;;;22.90;99.90;;;;;;5074185;28;20028;-72
2023/04/28 11:39:03;;;;;;;7.03;6.70;;;22.90;99.90;;;;;;5074551;28;20029;-72
2023/04/28 11:41:30;;;;;;;7.00;6.60;;;22.90;99.90;;;;;;5074422;28;20401;-72
2023/04/28 11:43:57;;;;;;;9.38;8.90;;;22.90;99.90;;;;;;5069376;28;20021;-72
2023/04/28 11:46:23;;;;;;;8.85;8.35;;;22.80;99.90;;;;;;5070432;28;20044;-72
2023/04/28 11:49:08;;;;;;;7.32;6.88;;;22.50;99.90;;;;;;5070723;28;20060;-72
2023/04/28 11:51:35;;;;;;;6.65;6.28;;;22.30;99.90;;;;;;5055014;28;20043;-72
2023/04/28 11:54:02;;;;;;;6.90;6.30;;;22.10;99.90;;;;;;5070669;28;20044;-72
2023/04/28 11:56:28;;;;;;;7.22;6.72;;;22.10;99.90;;;;;;5055572;28;20032;-72
2023/04/28 11:59:10;;;;;;;8.90;8.40;;;22.20;99.90;;;;;;5053520;28;20044;-72
2023/04/28 12:01:48;;;;;;;6.80;6.40;;;22.20;99.90;;;;;;5069003;28;20029;-72
2023/04/28 12:04:25;;;;;;;5.60;5.10;;;22.20;99.90;;;;;;5054056;28;20020;-72
2023/04/28 12:06:58;;;;;;;8.32;7.72;;;22.10;99.90;;;;;;5053529;28;20029;-72
2023/04/28 12:09:24;;;;;;;8.35;7.88;;;22.10;99.90;;;;;;5070330;28;20021;-72
2023/04/28 12:12:01;;;;;;;5.63;5.32;;;22.20;99.90;;;;;;5054964;28;20028;-72
2023/04/28 12:14:28;;;;;;;5.30;4.88;;;22.10;99.90;;;;;;5055002;28;20033;-72
2023/04/28 12:16:54;;;;;;;6.70;6.20;;;22.10;99.90;;;;;;5053580;28;20040;-72
2023/04/28 12:19:20;;;;;;;7.18;6.78;;;22.10;99.90;;;;;;5053140;28;20040;-72
2023/04/28 12:21:59;;;;;;;7.15;6.70;;;22.20;99.90;;;;;;5054445;28;20036;-72
2023/04/28 12:24:26;;;;;;;6.88;6.47;;;22.40;99.90;;;;;;5053709;28;20490;-72
2023/04/28 12:26:53;;;;;;;7.07;6.68;;;22.40;99.90;;;;;;5061161;28;20086;-72
2023/04/28 12:29:38;;;;;;;8.15;7.75;;;22.40;99.90;;;;;;5073547;28;20377;-72
2023/04/28 12:32:08;;;;;;;8.00;7.50;;;22.50;99.90;;;;;;5073048;28;20029;-72
2023/04/28 12:34:35;;;;;;;7.93;7.43;;;22.60;99.90;;;;;;5073141;28;20048;-72
2023/04/28 12:37:04;;;;;;;7.20;6.80;;;22.70;99.90;;;;;;5073454;28;20029;-72
2023/04/28 12:39:35;;;;;;;8.63;8.10;;;22.70;99.90;;;;;;5074477;28;20043;-72
2023/04/28 12:42:01;;;;;;;;;;;22.70;99.90;;;;;;5073686;28;20016;-72
2023/04/28 12:44:34;;;;;;;6.75;6.35;;;22.80;99.90;;;;;;5065433;28;20372;-72
2023/04/28 12:47:06;;;;;;;8.65;8.18;;;22.90;99.90;;;;;;5052676;28;20041;-72